createdAt,value
2023-04-14T00:01:41.474Z,3.70
2023-04-14T00:06:43.706Z,3.70
2023-04-14T00:11:45.750Z,3.75
2023-04-14T00:16:48.110Z,3.50
2023-04-14T00:21:50.847Z,3.53
2023-04-14T00:26:53.082Z,4.38
2023-04-14T00:31:56.434Z,3.70
2023-04-14T00:36:58.676Z,3.33
2023-04-14T00:42:02.140Z,3.60
2023-04-14T00:47:05.500Z,3.30
2023-04-14T00:52:07.999Z,4.57
2023-04-14T00:57:10.355Z,4.00
2023-04-14T01:02:12.866Z,4.28
2023-04-14T01:07:15.254Z,3.63
2023-04-14T01:12:52.930Z,4.25
2023-04-14T01:18:20.321Z,3.95
2023-04-14T01:23:29.199Z,3.30
2023-04-14T01:28:34.021Z,3.25
2023-04-14T01:33:40.385Z,4.05
2023-04-14T01:38:45.313Z,4.20
2023-04-14T01:43:53.893Z,4.18
2023-04-14T01:48:56.283Z,3.80
2023-04-14T01:53:59.319Z,4.63
2023-04-14T01:59:03.828Z,3.83
2023-04-14T02:04:08.397Z,3.80
2023-04-14T02:09:12.901Z,4.30
2023-04-14T02:14:16.433Z,4.38
2023-04-14T02:19:20.049Z,4.28
2023-04-14T02:24:23.611Z,4.32
2023-04-14T02:29:27.539Z,4.07
2023-04-14T02:34:37.462Z,4.13
2023-04-14T02:39:44.201Z,3.95
2023-04-14T02:44:51.972Z,4.40
2023-04-14T02:49:56.908Z,4.13
2023-04-14T02:55:01.234Z,4.10
2023-04-14T03:00:06.185Z,4.25
2023-04-14T03:05:14.385Z,3.90
2023-04-14T03:10:33.722Z,4.18
2023-04-14T03:15:38.029Z,4.00
2023-04-14T03:20:43.353Z,4.28
2023-04-14T03:25:47.082Z,3.95
2023-04-14T03:30:55.299Z,3.95
2023-04-14T03:36:01.738Z,4.00
2023-04-14T03:41:07.370Z,3.80
2023-04-14T03:46:11.121Z,4.20
2023-04-14T03:51:15.768Z,4.10
2023-04-14T03:56:19.614Z,4.18
2023-04-14T04:01:25.771Z,4.40
2023-04-14T04:06:28.413Z,4.25
2023-04-14T04:11:33.112Z,4.05
2023-04-14T04:16:37.607Z,4.45
2023-04-14T04:21:41.820Z,4.53
2023-04-14T04:26:44.259Z,4.15
2023-04-14T04:31:46.873Z,4.25
2023-04-14T04:36:49.783Z,3.80
2023-04-14T04:42:01.471Z,4.68
2023-04-14T04:47:04.251Z,4.32
2023-04-14T04:52:06.809Z,4.15
2023-04-14T04:57:10.448Z,4.47
2023-04-14T05:02:13.378Z,4.35
2023-04-14T05:07:15.809Z,4.78
2023-04-14T05:12:17.783Z,3.88
2023-04-14T05:17:19.822Z,4.22
2023-04-14T05:22:21.850Z,5.13
2023-04-14T05:27:23.859Z,4.43
2023-04-14T05:32:28.978Z,4.75
2023-04-14T05:37:31.498Z,5.57
2023-04-14T05:42:33.616Z,5.85
2023-04-14T05:47:35.991Z,5.82
2023-04-14T05:52:38.024Z,6.07
2023-04-14T05:57:40.237Z,6.05
2023-04-14T06:02:42.920Z,5.97
2023-04-14T06:07:46.136Z,6.55
2023-04-14T06:12:48.319Z,6.55
2023-04-14T06:17:50.370Z,6.47
2023-04-14T06:22:52.816Z,7.05
2023-04-14T06:27:54.865Z,7.07
2023-04-14T06:32:56.897Z,6.32
2023-04-14T06:37:59.578Z,6.10
2023-04-14T06:43:01.790Z,5.90
2023-04-14T06:48:04.365Z,5.28
2023-04-14T06:53:07.171Z,5.30
2023-04-14T06:58:09.361Z,4.78
2023-04-14T07:03:11.596Z,5.20
2023-04-14T07:08:13.801Z,4.30
2023-04-14T07:13:16.099Z,4.25
2023-04-14T07:18:18.239Z,4.28
2023-04-14T07:23:21.418Z,3.38
2023-04-14T07:28:24.821Z,3.35
2023-04-14T07:33:31.001Z,2.88
2023-04-14T07:38:33.411Z,2.70
2023-04-14T07:43:36.029Z,2.55
2023-04-14T07:48:38.636Z,2.63
2023-04-14T07:53:44.941Z,2.35
2023-04-14T07:58:47.142Z,3.60
2023-04-14T08:03:49.699Z,2.53
2023-04-14T08:08:52.176Z,2.10
2023-04-14T08:13:54.362Z,2.17
2023-04-14T08:18:58.228Z,2.63
2023-04-14T08:24:00.960Z,2.33
2023-04-14T08:29:03.581Z,2.10
2023-04-14T08:34:06.166Z,1.83
2023-04-14T08:39:08.266Z,1.73
2023-04-14T08:44:10.367Z,1.73
2023-04-14T08:49:24.548Z,1.75
2023-04-14T08:54:27.254Z,2.05
2023-04-14T08:59:29.521Z,1.70
2023-04-14T09:04:33.370Z,1.90
2023-04-14T09:09:35.519Z,1.75
2023-04-14T09:14:37.923Z,3.28
2023-04-14T09:20:37.652Z,1.73
2023-04-14T09:25:03.341Z,1.67
2023-04-14T09:30:06.416Z,2.10
2023-04-14T09:35:13.122Z,1.58
2023-04-14T09:40:31.531Z,1.67
2023-04-14T09:45:44.831Z,1.70
2023-04-14T09:51:07.090Z,1.90
2023-04-14T09:56:10.990Z,1.65
2023-04-14T10:01:18.221Z,1.77
2023-04-14T10:06:22.270Z,1.75
2023-04-14T10:11:35.300Z,1.80
2023-04-14T10:16:37.694Z,1.60
2023-04-14T10:21:39.862Z,1.90
2023-04-14T10:26:42.787Z,1.30
2023-04-14T10:31:59.782Z,1.42
2023-04-14T10:37:15.676Z,1.30
2023-04-14T10:42:17.709Z,1.52
2023-04-14T10:47:25.091Z,1.40
2023-04-14T10:52:27.467Z,1.30
2023-04-14T10:57:30.174Z,1.30
2023-04-14T11:02:33.899Z,1.70
2023-04-14T11:07:46.212Z,1.27
2023-04-14T11:12:54.877Z,1.40
2023-04-14T11:18:11.303Z,1.80
2023-04-14T11:23:14.498Z,1.35
2023-04-14T11:28:16.452Z,1.40
2023-04-14T11:33:19.157Z,1.50
2023-04-14T11:38:21.569Z,1.60
2023-04-14T11:43:24.663Z,1.20
2023-04-14T11:48:29.626Z,1.52
2023-04-14T11:53:33.723Z,1.23
2023-04-14T11:58:35.905Z,0.85
2023-04-14T12:03:39.562Z,1.20
2023-04-14T12:08:41.903Z,1.38
2023-04-14T12:13:46.046Z,1.30
2023-04-14T12:18:48.303Z,1.77
2023-04-14T12:23:50.845Z,1.40
2023-04-14T12:28:57.847Z,1.30
2023-04-14T12:34:01.998Z,1.30
2023-04-14T12:39:06.420Z,1.45
2023-04-14T12:44:15.023Z,1.20
2023-04-14T12:49:37.946Z,1.30
2023-04-14T12:54:52.558Z,1.48
2023-04-14T12:59:54.806Z,1.40
2023-04-14T13:04:57.330Z,1.33
2023-04-14T13:09:59.448Z,1.10
2023-04-14T13:15:01.544Z,1.20
2023-04-14T13:20:03.641Z,1.80
2023-04-14T13:25:06.559Z,1.33
2023-04-14T13:30:09.209Z,1.40
2023-04-14T13:35:11.745Z,1.40
2023-04-14T13:40:13.864Z,1.40
2023-04-14T13:45:16.070Z,1.40
2023-04-14T13:50:20.047Z,1.27
2023-04-14T13:55:22.119Z,1.10
2023-04-14T14:00:24.283Z,1.27
2023-04-14T14:05:27.254Z,1.40
2023-04-14T14:10:41.820Z,1.00
2023-04-14T14:15:43.878Z,1.30
2023-04-14T14:20:47.340Z,1.58
2023-04-14T14:25:49.408Z,1.20
2023-04-14T14:30:51.430Z,1.33
2023-04-14T14:35:53.734Z,1.35
2023-04-14T14:40:55.920Z,1.15
2023-04-14T14:46:08.591Z,1.02
2023-04-14T14:51:12.503Z,1.38
2023-04-14T14:56:14.816Z,1.30
2023-04-14T15:01:16.912Z,1.08
2023-04-14T15:06:19.128Z,1.27
2023-04-14T15:11:21.571Z,1.10
2023-04-14T15:16:24.229Z,1.23
2023-04-14T15:21:26.303Z,1.10
2023-04-14T15:26:28.433Z,1.30
2023-04-14T15:31:30.934Z,1.02
2023-04-14T15:36:33.132Z,1.27
2023-04-14T15:41:36.273Z,1.20
2023-04-14T15:46:38.395Z,1.10
2023-04-14T15:51:40.627Z,2.28
2023-04-14T15:56:42.847Z,1.60
2023-04-14T16:01:45.164Z,2.13
2023-04-14T16:06:47.902Z,1.58
2023-04-14T16:11:50.695Z,1.10
2023-04-14T16:16:53.191Z,2.28
2023-04-14T16:21:56.773Z,4.72
2023-04-14T16:26:59.102Z,6.20
2023-04-14T16:32:01.535Z,6.72
2023-04-14T16:37:03.756Z,5.82
2023-04-14T16:42:05.889Z,3.33
2023-04-14T16:47:07.926Z,2.03
2023-04-14T16:52:10.001Z,2.10
2023-04-14T16:57:12.101Z,1.92
2023-04-14T17:02:14.463Z,1.45
2023-04-14T17:07:16.635Z,1.20
2023-04-14T17:12:18.664Z,1.27
2023-04-14T17:17:20.899Z,1.30
2023-04-14T17:22:22.941Z,1.33
2023-04-14T17:27:25.024Z,1.20
2023-04-14T17:32:27.750Z,1.10
2023-04-14T17:37:31.182Z,1.45
2023-04-14T17:42:34.234Z,2.22
2023-04-14T17:47:38.263Z,1.17
2023-04-14T17:52:40.452Z,2.03
2023-04-14T17:57:43.144Z,1.17
2023-04-14T18:02:45.390Z,1.38
2023-04-14T18:07:47.601Z,1.67
2023-04-14T18:12:49.605Z,1.75
2023-04-14T18:17:51.921Z,1.40
2023-04-14T18:23:01.955Z,1.40
2023-04-14T18:28:04.232Z,1.90
2023-04-14T18:33:06.411Z,1.77
2023-04-14T18:38:08.727Z,1.10
2023-04-14T18:43:10.836Z,1.77
2023-04-14T18:48:14.193Z,2.10
2023-04-14T18:53:16.389Z,1.88
2023-04-14T18:58:18.830Z,1.77
2023-04-14T19:03:21.859Z,1.50
2023-04-14T19:08:24.367Z,1.27
2023-04-14T19:13:28.676Z,1.42
2023-04-14T19:18:30.689Z,2.17
2023-04-14T19:23:32.730Z,1.60
2023-04-14T19:28:34.928Z,1.67
2023-04-14T19:33:37.951Z,3.30
2023-04-14T19:38:40.545Z,4.13
2023-04-14T19:43:42.566Z,5.93
2023-04-14T19:48:45.255Z,4.90
2023-04-14T19:53:48.170Z,4.38
2023-04-14T19:58:51.695Z,3.45
2023-04-14T20:04:06.507Z,6.40
2023-04-14T20:09:14.386Z,5.40
2023-04-14T20:14:16.488Z,6.00
2023-04-14T20:19:21.033Z,4.45
2023-04-14T20:24:25.340Z,4.28
2023-04-14T20:29:27.372Z,3.85
2023-04-14T20:34:29.403Z,4.53
2023-04-14T20:39:31.417Z,4.00
2023-04-14T20:44:33.521Z,6.25
2023-04-14T20:49:35.614Z,6.68
2023-04-14T20:54:37.865Z,5.55
2023-04-14T20:59:39.993Z,4.20
2023-04-14T21:04:42.322Z,3.50
2023-04-14T21:09:44.737Z,3.15
2023-04-14T21:15:45.068Z,3.20
2023-04-14T21:20:10.740Z,3.50
2023-04-14T21:25:12.775Z,4.28
2023-04-14T21:30:15.489Z,4.38
2023-04-14T21:35:17.621Z,4.50
2023-04-14T21:40:20.191Z,4.32
2023-04-14T21:45:22.587Z,4.55
2023-04-14T21:50:25.065Z,4.78
2023-04-14T21:55:27.357Z,5.05
2023-04-14T22:00:29.420Z,5.78
2023-04-14T22:05:31.445Z,5.13
2023-04-14T22:10:34.075Z,5.15
2023-04-14T22:15:36.173Z,5.55
2023-04-14T22:20:39.172Z,5.00
2023-04-14T22:25:41.340Z,5.50
2023-04-14T22:30:44.072Z,5.40
2023-04-14T22:35:46.475Z,5.47
2023-04-14T22:40:51.049Z,5.30
2023-04-14T22:45:54.722Z,5.07
2023-04-14T22:50:57.161Z,5.55
2023-04-14T22:55:59.244Z,6.15
2023-04-14T23:01:12.113Z,5.10
2023-04-14T23:06:22.919Z,5.20
2023-04-14T23:11:24.988Z,5.20
2023-04-14T23:16:27.459Z,4.88
2023-04-14T23:21:30.227Z,5.32
2023-04-14T23:26:32.272Z,4.90
2023-04-14T23:31:34.380Z,5.07
2023-04-14T23:36:37.594Z,4.93
2023-04-14T23:41:39.834Z,4.78
2023-04-14T23:46:42.213Z,5.07
2023-04-14T23:51:44.853Z,4.97
2023-04-14T23:56:47.329Z,5.10
